Time;durP1;ratioP1;P1;durP2;ratioP2;P2;SDS_P1;SDS_P2;PMS_P1;PMS_P2;Temp;Humidity;BMP_temperature;BMP_pressure;BME280_temperature;BME280_humidity;BME280_pressure;Samples;Min_cycle;Max_cycle;Signal;HPM_P1;HPM_P2
2022/10/03 00:01:37;;;;;;;0.30;0.30;;;;;;;12.84;77.93;102488.09;2106099;28;20256;-68
2022/10/03 00:03:16;;;;;;;0.20;0.20;;;;;;;12.84;78.01;102488.09;2106786;28;20078;-68
2022/10/03 00:04:32;;;;;;;0.30;0.30;;;;;;;12.88;77.31;102494.47;2107633;28;20051;-68
2022/10/03 00:05:50;;;;;;;0.20;0.20;;;;;;;12.90;77.22;102503.09;2107476;28;21027;-67
2022/10/03 00:07:07;;;;;;;0.20;0.20;;;;;;;12.90;77.15;102500.38;2107700;28;20528;-67
2022/10/03 00:08:26;;;;;;;0.20;0.20;;;;;;;12.87;77.33;102498.31;2107183;28;20051;-67
2022/10/03 00:09:55;;;;;;;0.20;0.20;;;;;;;12.87;77.83;102497.50;2108411;28;20063;-68
2022/10/03 00:11:08;;;;;;;0.25;0.25;;;;;;;12.91;77.21;102503.88;2108751;28;20094;-68
2022/10/03 00:12:19;;;;;;;0.28;0.28;;;;;;;12.94;77.30;102509.47;2108881;28;20059;-68
2022/10/03 00:13:28;;;;;;;0.30;0.30;;;;;;;12.95;77.78;102510.28;2109020;28;20048;-68
2022/10/03 00:14:40;;;;;;;0.30;0.30;;;;;;;12.93;77.77;102507.88;2106630;28;20083;-67
2022/10/03 00:15:48;;;;;;;0.25;0.25;;;;;;;12.97;77.45;102503.41;2108076;28;20534;-68
2022/10/03 00:17:02;;;;;;;0.20;0.20;;;;;;;12.95;77.36;102511.06;2109069;28;20095;-68
2022/10/03 00:18:16;;;;;;;0.20;0.20;;;;;;;12.93;77.68;102513.31;2107854;28;20052;-69
2022/10/03 00:19:29;;;;;;;0.20;0.20;;;;;;;12.92;77.56;102514.41;2107792;28;20051;-69
2022/10/03 00:20:44;;;;;;;0.20;0.20;;;;;;;12.88;77.44;102516.16;2107282;28;20150;-68
2022/10/03 00:22:00;;;;;;;0.20;0.20;;;;;;;12.85;77.81;102511.38;2107647;28;20058;-68
2022/10/03 00:23:11;;;;;;;0.20;0.20;;;;;;;12.84;77.89;102512.50;2107906;28;20155;-68
2022/10/03 00:24:26;;;;;;;0.25;0.25;;;;;;;12.85;78.08;102516.78;2108549;28;20059;-69
2022/10/03 00:25:36;;;;;;;0.20;0.20;;;;;;;12.84;78.07;102517.91;2108216;28;20047;-69
2022/10/03 00:26:49;;;;;;;0.20;0.20;;;;;;;12.82;77.63;102509.28;2109899;28;20051;-68
2022/10/03 00:28:03;;;;;;;0.20;0.20;;;;;;;12.84;78.26;102519.81;2107564;28;20804;-68
2022/10/03 00:29:38;;;;;;;0.20;0.20;;;;;;;12.80;78.25;102513.41;2103207;28;20121;-68
2022/10/03 00:31:01;;;;;;;0.30;0.30;;;;;;;12.75;77.91;102519.78;2082927;28;20052;-69
2022/10/03 00:32:17;;;;;;;0.20;0.20;;;;;;;12.75;78.29;102525.19;2108660;28;20048;-68
2022/10/03 00:33:31;;;;;;;0.30;0.30;;;;;;;12.75;78.11;102527.91;2105480;28;20164;-69
2022/10/03 00:35:02;;;;;;;0.30;0.30;;;;;;;12.69;78.70;102522.94;2110508;28;20120;-69
2022/10/03 00:36:14;;;;;;;0.20;0.20;;;;;;;12.71;78.72;102526.94;2110191;28;20063;-69
2022/10/03 00:37:30;;;;;;;0.20;0.20;;;;;;;12.72;78.75;102533.16;2109349;28;20074;-67
2022/10/03 00:39:08;;;;;;;0.20;0.20;;;;;;;12.68;78.50;102530.28;2110513;28;20096;-67
2022/10/03 00:40:55;;;;;;;0.20;0.20;;;;;;;12.66;78.18;102534.41;2109020;28;20600;-68
2022/10/03 00:42:44;;;;;;;0.20;0.20;;;;;;;12.63;78.62;102535.03;2103275;28;20047;-68
2022/10/03 00:44:13;;;;;;;0.20;0.20;;;;;;;12.61;78.67;102534.53;2109165;28;20109;-67
2022/10/03 00:45:54;;;;;;;0.20;0.20;;;;;;;12.64;79.09;102540.13;2110440;28;20579;-69
2022/10/03 00:47:30;;;;;;;0.20;0.20;;;;;;;12.68;78.19;102543.03;2081789;28;20764;-69
2022/10/03 00:49:20;;;;;;;0.30;0.30;;;;;;;12.63;78.76;102535.03;2109391;28;20621;-68
2022/10/03 00:50:38;;;;;;;0.20;0.20;;;;;;;12.68;78.37;102543.84;2107432;28;20123;-67
2022/10/03 00:51:55;;;;;;;0.20;0.20;;;;;;;12.72;78.37;102544.78;2109882;28;20469;-67
2022/10/03 00:53:15;;;;;;;0.30;0.30;;;;;;;12.71;78.49;102545.91;2109740;28;20434;-67
2022/10/03 00:54:33;;;;;;;0.30;0.30;;;;;;;12.72;78.81;102550.22;2105577;28;20066;-67
2022/10/03 00:55:53;;;;;;;0.30;0.30;;;;;;;12.70;78.94;102549.72;2109603;28;20094;-67
2022/10/03 00:57:28;;;;;;;0.30;0.30;;;;;;;12.70;79.11;102551.66;2109820;28;20666;-69
2022/10/03 00:58:45;;;;;;;0.20;0.20;;;;;;;12.73;79.61;102551.81;2111270;28;20056;-69
2022/10/03 01:00:05;;;;;;;0.20;0.20;;;;;;;12.74;79.66;102549.91;2110687;28;20155;-68
2022/10/03 01:01:23;;;;;;;0.28;0.28;;;;;;;12.77;79.67;102557.41;2110356;28;20078;-68
2022/10/03 01:02:40;;;;;;;0.30;0.30;;;;;;;12.79;79.20;102553.28;2110098;28;20418;-68
2022/10/03 01:03:49;;;;;;;0.20;0.20;;;;;;;12.83;79.27;102559.66;2111006;28;20494;-68
2022/10/03 01:04:59;;;;;;;0.20;0.20;;;;;;;12.84;79.23;102561.28;2110248;28;20044;-68
2022/10/03 01:06:18;;;;;;;0.20;0.20;;;;;;;12.83;78.97;102566.97;2110257;28;20103;-68
2022/10/03 01:07:55;;;;;;;0.20;0.20;;;;;;;12.79;79.82;102556.00;2111059;28;20075;-67
2022/10/03 01:09:30;;;;;;;0.20;0.20;;;;;;;12.77;79.44;102563.63;2109969;28;20059;-68
2022/10/03 01:10:37;;;;;;;0.30;0.30;;;;;;;12.80;79.81;102560.28;2109947;28;20060;-67
2022/10/03 01:11:55;;;;;;;0.20;0.20;;;;;;;12.81;79.75;102559.16;2111339;28;20414;-68
2022/10/03 01:13:13;;;;;;;0.20;0.20;;;;;;;12.80;79.90;102560.28;2110577;28;20058;-67
2022/10/03 01:14:30;;;;;;;0.20;0.20;;;;;;;12.80;79.02;102562.19;2110852;28;20040;-67
2022/10/03 01:15:46;;;;;;;0.30;0.30;;;;;;;12.74;79.26;102558.03;2109479;28;20062;-69
2022/10/03 01:16:58;;;;;;;0.20;0.20;;;;;;;12.73;79.43;102561.88;2104001;28;20139;-69
2022/10/03 01:18:18;;;;;;;0.20;0.20;;;;;;;12.70;79.68;102557.06;2102195;28;20052;-67
2022/10/03 01:19:47;;;;;;;0.20;0.20;;;;;;;12.65;80.01;102559.91;2109967;28;20047;-67
2022/10/03 01:20:59;;;;;;;0.28;0.28;;;;;;;12.65;80.09;102563.44;2110041;28;20052;-68
2022/10/03 01:22:24;;;;;;;0.22;0.22;;;;;;;12.60;80.23;102555.44;2108620;28;20108;-68
2022/10/03 01:24:01;;;;;;;0.30;0.30;;;;;;;12.57;80.10;102561.47;2106975;28;20620;-68
2022/10/03 01:25:11;;;;;;;0.20;0.20;;;;;;;12.56;80.36;102568.00;2109724;28;20039;-68
2022/10/03 01:26:37;;;;;;;0.30;0.30;;;;;;;12.55;80.38;102560.19;2110619;28;20055;-69
2022/10/03 01:30:39;;;;;;;0.28;0.28;;;;;;;12.53;80.28;102557.78;2110456;27;20048;-69
2022/10/03 01:31:49;;;;;;;0.20;0.20;;;;;;;12.52;80.26;102564.31;2110614;28;20142;-68
2022/10/03 01:32:59;;;;;;;0.30;0.30;;;;;;;12.52;80.29;102563.50;2110142;28;20044;-68
2022/10/03 01:34:06;;;;;;;;;;;;;;;12.35;80.76;102561.53;2110107;28;20048;-68
2022/10/03 01:35:22;;;;;;;0.20;0.20;;;;;;;12.40;80.90;102557.88;2110151;28;19971;-69
2022/10/03 01:36:32;;;;;;;0.20;0.20;;;;;;;12.42;80.49;102561.88;2110182;28;20043;-68
2022/10/03 01:37:45;;;;;;;0.30;0.30;;;;;;;12.41;80.49;102564.88;2109623;28;20100;-69
2022/10/03 01:38:51;;;;;;;0.20;0.20;;;;;;;12.41;80.37;102571.13;2109003;28;20057;-68
2022/10/03 01:40:03;;;;;;;0.20;0.20;;;;;;;12.41;80.86;102562.19;2109249;28;20056;-68
2022/10/03 01:41:10;;;;;;;0.30;0.30;;;;;;;12.41;81.09;102571.13;2109443;28;20084;-68
2022/10/03 01:42:20;;;;;;;0.20;0.20;;;;;;;12.41;80.96;102567.59;2118001;27;20043;-69
2022/10/03 01:43:32;;;;;;;0.28;0.28;;;;;;;12.41;81.41;102570.31;2116519;27;20579;-68
2022/10/03 01:44:51;;;;;;;0.30;0.30;;;;;;;12.41;81.13;102568.41;2108498;28;20039;-69
2022/10/03 01:46:06;;;;;;;0.22;0.22;;;;;;;12.39;80.85;102570.63;2111117;28;20055;-67
2022/10/03 01:47:21;;;;;;;0.30;0.30;;;;;;;12.41;81.28;102571.13;2111292;28;20052;-68
2022/10/03 01:48:36;;;;;;;0.25;0.25;;;;;;;12.41;81.38;102570.31;2109825;28;20624;-68
2022/10/03 01:49:47;;;;;;;0.30;0.30;;;;;;;12.42;80.83;102571.88;2109822;28;20055;-68
2022/10/03 01:50:58;;;;;;;0.20;0.20;;;;;;;12.41;81.37;102570.31;2111420;28;20063;-68
2022/10/03 01:52:10;;;;;;;0.30;0.30;;;;;;;12.41;80.42;102570.31;2110386;28;20506;-68
2022/10/03 01:53:22;;;;;;;0.20;0.20;;;;;;;12.41;80.49;102573.00;2110116;28;20499;-68
2022/10/03 01:54:34;;;;;;;0.30;0.30;;;;;;;12.40;80.79;102574.91;2109031;28;20176;-68
2022/10/03 01:55:48;;;;;;;0.28;0.28;;;;;;;12.36;81.05;102571.25;2109553;28;20048;-68
2022/10/03 01:57:00;;;;;;;0.20;0.20;;;;;;;12.37;81.10;102570.13;2109065;28;20056;-68
2022/10/03 01:58:08;;;;;;;0.30;0.30;;;;;;;12.35;80.92;102564.22;2110234;28;20047;-69
2022/10/03 01:59:17;;;;;;;0.20;0.20;;;;;;;12.37;81.34;102570.13;2110849;28;20487;-68
2022/10/03 02:00:23;;;;;;;0.30;0.30;;;;;;;12.38;81.18;102573.63;2108983;28;20047;-68
2022/10/03 02:01:34;;;;;;;0.30;0.30;;;;;;;12.37;81.13;102575.53;2108453;28;20043;-69
2022/10/03 02:02:44;;;;;;;0.40;0.40;;;;;;;12.35;80.95;102577.78;2108780;28;20496;-68
2022/10/03 02:03:57;;;;;;;0.30;0.30;;;;;;;12.36;80.94;102573.94;2101410;28;20066;-69
2022/10/03 02:05:06;;;;;;;0.30;0.30;;;;;;;12.37;81.13;102578.25;2107765;28;20059;-68
2022/10/03 02:06:21;;;;;;;0.20;0.20;;;;;;;12.36;81.31;102579.38;2109329;28;20054;-67
2022/10/03 02:07:35;;;;;;;0.30;0.30;;;;;;;12.36;81.05;102571.25;2108755;28;20502;-67
2022/10/03 02:08:48;;;;;;;0.30;0.30;;;;;;;12.37;81.38;102580.19;2108141;28;20446;-68
2022/10/03 02:10:05;;;;;;;0.30;0.30;;;;;;;12.37;81.40;102580.94;2110545;28;20526;-69
2022/10/03 02:11:09;;;;;;;0.30;0.30;;;;;;;12.41;81.50;102581.94;2110745;28;20060;-69
2022/10/03 02:12:23;;;;;;;0.40;0.40;;;;;;;12.44;80.83;102586.75;2108073;28;20052;-67
2022/10/03 02:13:30;;;;;;;0.30;0.30;;;;;;;12.45;81.16;102582.91;2109200;27;20146;-68
2022/10/03 02:14:46;;;;;;;0.30;0.30;;;;;;;12.46;80.96;102571.00;2110021;28;20080;-68
2022/10/03 02:16:02;;;;;;;0.30;0.30;;;;;;;12.46;81.19;102579.13;2109558;28;20170;-69
2022/10/03 02:17:11;;;;;;;0.28;0.28;;;;;;;12.48;81.25;102585.00;2108605;28;20073;-68
2022/10/03 02:18:23;;;;;;;0.30;0.30;;;;;;;12.49;81.08;102574.97;2107876;28;20055;-68
2022/10/03 02:19:29;;;;;;;0.30;0.30;;;;;;;12.48;81.15;102576.88;2108279;28;20104;-68
2022/10/03 02:20:41;;;;;;;0.25;0.25;;;;;;;12.49;80.82;102583.91;2100518;28;20519;-67
2022/10/03 02:21:47;;;;;;;0.40;0.40;;;;;;;12.49;80.79;102586.63;2101885;28;20147;-68
2022/10/03 02:22:54;;;;;;;0.30;0.30;;;;;;;12.49;80.13;102588.50;2109125;27;20439;-67
2022/10/03 02:24:17;;;;;;;0.30;0.30;;;;;;;12.44;80.53;102589.44;2109033;28;20075;-68
2022/10/03 02:25:25;;;;;;;0.40;0.40;;;;;;;12.46;81.14;102583.72;2109264;28;20115;-68
2022/10/03 02:27:13;;;;;;;0.40;0.40;;;;;;;12.39;80.53;102589.56;2109855;28;20129;-68
2022/10/03 02:28:58;;;;;;;0.30;0.30;;;;;;;12.37;81.21;102586.38;2109582;28;20522;-68
2022/10/03 02:30:20;;;;;;;0.40;0.40;;;;;;;12.36;80.76;102598.31;2109363;28;20073;-68
2022/10/03 02:31:58;;;;;;;0.30;0.30;;;;;;;12.37;81.07;102586.38;2108492;28;20184;-68
2022/10/03 02:33:43;;;;;;;0.40;0.40;;;;;;;12.31;80.93;102590.31;2076463;28;20058;-68
2022/10/03 02:35:26;;;;;;;0.30;0.30;;;;;;;12.33;81.14;102590.81;2110393;28;20066;-68
2022/10/03 02:37:07;;;;;;;0.30;0.30;;;;;;;12.30;80.99;102588.72;2091840;27;20056;-68
2022/10/03 02:38:25;;;;;;;0.30;0.30;;;;;;;12.30;80.49;102596.03;2088079;27;20413;-68
2022/10/03 02:39:59;;;;;;;0.30;0.30;;;;;;;12.29;81.12;102595.25;2108506;27;20052;-69
2022/10/03 02:41:24;;;;;;;0.30;0.30;;;;;;;12.28;80.99;102601.78;2108229;28;20051;-67
2022/10/03 02:43:10;;;;;;;0.30;0.30;;;;;;;12.26;81.20;102593.16;2108755;28;20418;-67
2022/10/03 02:44:35;;;;;;;0.30;0.30;;;;;;;12.28;81.11;102590.13;2109690;28;20047;-68
2022/10/03 02:46:19;;;;;;;0.30;0.30;;;;;;;12.25;80.89;102594.28;2109187;28;20059;-68
2022/10/03 02:47:48;;;;;;;0.30;0.30;;;;;;;12.25;81.09;102599.69;2108981;28;20139;-68
2022/10/03 02:49:17;;;;;;;0.30;0.30;;;;;;;12.23;81.16;102601.09;2108835;28;20052;-68
2022/10/03 02:50:53;;;;;;;0.30;0.30;;;;;;;12.18;81.17;102603.94;2108923;28;20684;-68
2022/10/03 02:52:41;;;;;;;0.30;0.30;;;;;;;12.11;81.35;102604.38;2092818;28;20051;-68
2022/10/03 02:54:33;;;;;;;0.30;0.30;;;;;;;12.07;81.59;102603.38;2109104;27;20391;-68
2022/10/03 02:56:06;;;;;;;0.30;0.30;;;;;;;11.99;81.42;102602.19;2091767;28;20068;-68
2022/10/03 02:57:42;;;;;;;0.30;0.30;;;;;;;11.98;81.52;102605.22;2083032;28;20085;-68
2022/10/03 02:59:19;;;;;;;0.30;0.30;;;;;;;11.93;81.81;102603.44;2105554;28;20051;-68
2022/10/03 03:00:32;;;;;;;0.30;0.30;;;;;;;11.89;81.88;102594.31;2098997;28;20487;-68
2022/10/03 03:01:51;;;;;;;0.30;0.30;;;;;;;11.85;82.11;102598.75;2109023;28;20051;-68
2022/10/03 03:03:16;;;;;;;0.30;0.30;;;;;;;11.84;82.32;102594.41;2109421;28;20872;-68
2022/10/03 03:04:42;;;;;;;0.30;0.30;;;;;;;11.82;82.50;102601.25;2109322;28;20126;-68
2022/10/03 03:06:11;;;;;;;0.40;0.40;;;;;;;11.83;82.75;102597.44;2109754;28;20055;-69
2022/10/03 03:07:30;;;;;;;0.30;0.30;;;;;;;11.85;83.07;102596.03;2109622;28;20056;-69
2022/10/03 03:09:01;;;;;;;0.30;0.30;;;;;;;11.88;82.85;102600.03;2110011;28;20055;-69
2022/10/03 03:10:30;;;;;;;0.30;0.30;;;;;;;11.96;82.65;102591.19;2109841;28;20047;-68
2022/10/03 03:11:58;;;;;;;0.32;0.32;;;;;;;11.99;83.13;102594.09;2108306;28;20048;-69
2022/10/03 03:13:48;;;;;;;0.30;0.30;;;;;;;12.02;83.14;102596.16;2108975;28;20514;-69
2022/10/03 03:15:24;;;;;;;0.20;0.20;;;;;;;12.06;82.68;102599.06;2108877;27;20058;-69
2022/10/03 03:16:42;;;;;;;0.20;0.20;;;;;;;12.11;82.58;102604.38;2108854;27;20504;-68
2022/10/03 03:17:51;;;;;;;0.30;0.30;;;;;;;12.16;82.36;102611.56;2108621;28;20052;-69
2022/10/03 03:19:12;;;;;;;0.30;0.30;;;;;;;12.15;82.00;102608.03;2109181;28;20391;-68
2022/10/03 03:20:41;;;;;;;0.30;0.30;;;;;;;12.18;82.17;102604.72;2108203;28;20113;-68
2022/10/03 03:21:52;;;;;;;0.30;0.30;;;;;;;12.18;82.18;102604.72;2108455;28;20059;-69
2022/10/03 03:23:15;;;;;;;0.30;0.30;;;;;;;12.18;82.41;102604.72;2108326;28;20079;-69
2022/10/03 03:24:41;;;;;;;0.30;0.30;;;;;;;12.18;82.14;102603.94;2108565;28;20040;-68
2022/10/03 03:26:06;;;;;;;0.30;0.30;;;;;;;12.21;82.37;102606.81;2109243;28;20093;-68
2022/10/03 03:27:25;;;;;;;0.40;0.40;;;;;;;12.23;82.11;102610.03;2108299;28;20494;-68
2022/10/03 03:28:40;;;;;;;0.30;0.30;;;;;;;12.26;81.71;102614.03;2108390;28;20055;-68
2022/10/03 03:29:49;;;;;;;0.40;0.40;;;;;;;12.26;82.14;102617.53;2108346;28;20076;-68
2022/10/03 03:31:04;;;;;;;0.30;0.30;;;;;;;12.27;81.92;102616.44;2108282;28;20053;-69
2022/10/03 03:32:19;;;;;;;0.30;0.30;;;;;;;12.26;81.90;102616.75;2108805;28;20122;-68
2022/10/03 03:33:28;;;;;;;0.30;0.30;;;;;;;12.26;81.54;102619.44;2107779;28;20055;-68
2022/10/03 03:34:37;;;;;;;0.30;0.30;;;;;;;12.25;81.89;102625.97;2108152;28;20052;-68
2022/10/03 03:35:54;;;;;;;0.30;0.30;;;;;;;12.23;81.45;102625.47;2109940;28;20499;-68
2022/10/03 03:37:05;;;;;;;0.30;0.30;;;;;;;12.21;81.79;102619.56;2108442;28;20125;-68
2022/10/03 03:38:20;;;;;;;0.30;0.30;;;;;;;12.18;81.72;102623.69;2101100;28;20092;-69
2022/10/03 03:39:48;;;;;;;0.30;0.30;;;;;;;12.13;81.93;102628.44;2108073;28;20047;-69
2022/10/03 03:41:05;;;;;;;0.30;0.30;;;;;;;12.13;81.83;102623.00;2108273;28;20048;-69
2022/10/03 03:42:23;;;;;;;0.30;0.30;;;;;;;12.10;82.02;102621.69;2107841;28;20063;-69
2022/10/03 03:43:36;;;;;;;0.20;0.20;;;;;;;12.06;81.84;102626.16;2108694;28;20051;-69
2022/10/03 03:45:08;;;;;;;0.30;0.30;;;;;;;12.00;82.19;102621.97;2109236;28;20996;-69
2022/10/03 03:46:33;;;;;;;0.30;0.30;;;;;;;11.98;82.25;102621.47;2081417;28;20085;-69
2022/10/03 03:47:51;;;;;;;0.30;0.30;;;;;;;11.99;81.93;102626.56;2108364;28;20060;-69
2022/10/03 03:49:07;;;;;;;0.30;0.30;;;;;;;11.98;82.06;102618.75;2109953;28;20962;-68
2022/10/03 03:50:24;;;;;;;0.30;0.30;;;;;;;11.95;82.12;102625.59;2109515;28;20047;-68
2022/10/03 03:51:39;;;;;;;0.40;0.40;;;;;;;11.95;82.00;102620.19;2109585;28;20050;-69
2022/10/03 03:52:57;;;;;;;0.40;0.40;;;;;;;11.93;82.34;102621.56;2107962;28;20455;-69
2022/10/03 03:54:39;;;;;;;0.30;0.30;;;;;;;11.86;82.42;102619.28;2107588;28;20127;-68
2022/10/03 03:56:02;;;;;;;0.40;0.40;;;;;;;11.85;82.62;102625.81;2108889;28;20178;-68
2022/10/03 03:57:24;;;;;;;0.30;0.30;;;;;;;11.83;82.39;102627.22;2108397;28;20715;-68
2022/10/03 03:58:35;;;;;;;0.30;0.30;;;;;;;11.86;82.61;102632.03;2108952;28;20410;-69
2022/10/03 03:59:57;;;;;;;0.30;0.30;;;;;;;11.86;82.43;102632.03;2110180;28;20086;-68
2022/10/03 04:01:32;;;;;;;0.30;0.30;;;;;;;11.79;82.58;102634.34;2109399;28;20496;-68
2022/10/03 04:02:51;;;;;;;0.30;0.30;;;;;;;11.79;82.44;102635.16;2107042;28;20411;-67
2022/10/03 04:04:06;;;;;;;0.30;0.30;;;;;;;11.80;82.33;102631.34;2107809;28;20051;-68
2022/10/03 04:05:23;;;;;;;0.30;0.30;;;;;;;11.78;82.58;102628.13;2108102;28;20138;-68
2022/10/03 04:06:42;;;;;;;0.30;0.30;;;;;;;11.81;82.69;102626.72;2096139;28;20111;-68
2022/10/03 04:07:57;;;;;;;0.30;0.30;;;;;;;11.79;82.60;102629.75;2104002;28;20043;-69
2022/10/03 04:09:35;;;;;;;0.30;0.30;;;;;;;11.75;82.72;102634.16;2108345;28;20055;-69
2022/10/03 04:10:52;;;;;;;0.30;0.30;;;;;;;11.74;82.56;102627.16;2105077;28;20048;-68
2022/10/03 04:12:08;;;;;;;0.30;0.30;;;;;;;11.76;82.58;102624.94;2108237;28;20100;-69
2022/10/03 04:13:35;;;;;;;0.30;0.30;;;;;;;11.73;82.63;102628.22;2108579;28;20054;-69
2022/10/03 04:15:13;;;;;;;0.38;0.38;;;;;;;11.68;82.33;102636.50;2108518;28;20056;-69
2022/10/03 04:19:58;;;;;;;0.30;0.30;;;;;;;11.69;82.35;102639.97;2106956;28;20084;-67
2022/10/03 04:21:37;;;;;;;0.40;0.40;;;;;;;11.71;82.52;102637.78;2108262;28;20542;-68
2022/10/03 04:22:59;;;;;;;0.40;0.40;;;;;;;11.67;82.28;102642.19;2074958;28;20084;-69
2022/10/03 04:24:35;;;;;;;0.40;0.40;;;;;;;11.61;82.29;102640.66;2078593;28;20621;-68
2022/10/03 04:25:53;;;;;;;0.30;0.30;;;;;;;11.64;82.50;102638.19;2106255;28;20044;-68
2022/10/03 04:27:14;;;;;;;0.40;0.40;;;;;;;11.63;83.02;102635.78;2108478;28;20489;-68
2022/10/03 04:28:50;;;;;;;0.38;0.38;;;;;;;11.59;82.38;102634.78;2108953;28;20499;-69
2022/10/03 04:30:03;;;;;;;0.40;0.40;;;;;;;11.61;82.74;102632.53;2083854;28;20681;-68
2022/10/03 04:31:22;;;;;;;0.40;0.40;;;;;;;11.61;82.28;102635.25;2109298;28;20056;-68
2022/10/03 04:33:00;;;;;;;0.40;0.40;;;;;;;11.57;82.86;102632.38;2108757;28;20051;-68
2022/10/03 04:34:19;;;;;;;0.40;0.40;;;;;;;11.55;82.97;102633.75;2084051;28;20136;-68
2022/10/03 04:36:08;;;;;;;0.30;0.30;;;;;;;11.53;82.94;102639.47;2091868;28;20059;-68
2022/10/03 04:37:19;;;;;;;0.30;0.30;;;;;;;11.52;82.83;102632.47;2107074;28;20739;-68
2022/10/03 04:38:43;;;;;;;0.40;0.40;;;;;;;11.51;83.45;102632.78;2107489;28;20516;-69
2022/10/03 04:39:57;;;;;;;0.35;0.35;;;;;;;11.51;83.35;102640.88;2108774;28;20525;-68
2022/10/03 04:41:12;;;;;;;0.30;0.30;;;;;;;11.51;82.72;102636.25;2108496;28;20499;-69
2022/10/03 04:42:27;;;;;;;0.38;0.38;;;;;;;11.51;82.97;102643.59;2108697;28;20729;-68
2022/10/03 04:43:39;;;;;;;0.30;0.30;;;;;;;11.52;82.97;102637.88;2108078;28;20089;-68
2022/10/03 04:45:01;;;;;;;0.30;0.30;;;;;;;11.51;82.85;102638.19;2108155;28;20084;-68
2022/10/03 04:46:21;;;;;;;0.40;0.40;;;;;;;11.48;82.85;102627.97;2108444;28;20075;-68
2022/10/03 04:47:29;;;;;;;0.40;0.40;;;;;;;11.45;82.61;102632.06;2108874;28;20108;-68
2022/10/03 04:48:39;;;;;;;0.40;0.40;;;;;;;11.46;82.93;102630.16;2108305;28;20052;-68
2022/10/03 04:49:51;;;;;;;0.30;0.30;;;;;;;11.42;83.20;102635.38;2108596;28;20487;-69
2022/10/03 04:51:06;;;;;;;0.30;0.30;;;;;;;11.41;82.95;102630.28;2109447;28;20040;-68
2022/10/03 04:52:18;;;;;;;0.30;0.30;;;;;;;11.39;83.12;102635.19;2109549;28;20067;-68
2022/10/03 04:53:37;;;;;;;0.40;0.40;;;;;;;11.39;83.30;102635.19;2107199;28;20063;-68
2022/10/03 04:54:51;;;;;;;0.40;0.40;;;;;;;11.35;83.33;102629.56;2100224;28;20839;-68
2022/10/03 04:56:03;;;;;;;0.38;0.38;;;;;;;11.38;83.60;102636.28;2093935;28;20040;-69
2022/10/03 04:57:20;;;;;;;0.40;0.40;;;;;;;11.37;83.45;102626.59;2102368;28;20056;-68
2022/10/03 04:58:32;;;;;;;0.40;0.40;;;;;;;11.35;83.55;102634.19;2108312;28;20047;-69
2022/10/03 04:59:42;;;;;;;0.38;0.38;;;;;;;11.36;83.42;102638.47;2107779;28;20703;-69
2022/10/03 05:00:51;;;;;;;;;;;;;;;11.22;83.89;102632.28;2101838;28;20502;-69
2022/10/03 05:02:01;;;;;;;0.47;0.47;;;;;;;11.29;83.76;102635.41;2108846;28;19927;-68
2022/10/03 05:03:13;;;;;;;0.50;0.50;;;;;;;11.31;83.34;102633.19;2109833;28;20159;-68
2022/10/03 05:04:26;;;;;;;0.50;0.50;;;;;;;11.30;83.23;102632.41;2108641;28;20534;-68
2022/10/03 05:05:46;;;;;;;0.40;0.40;;;;;;;11.29;83.81;102630.00;2101378;28;20063;-69
2022/10/03 05:06:59;;;;;;;0.35;0.35;;;;;;;11.28;83.42;102633.78;2107374;28;20072;-68
2022/10/03 05:08:19;;;;;;;0.43;0.43;;;;;;;11.26;83.90;102634.09;2108552;28;20039;-69
2022/10/03 05:09:33;;;;;;;0.50;0.50;;;;;;;11.25;83.40;102632.50;2108232;28;20044;-69
2022/10/03 05:10:54;;;;;;;0.40;0.40;;;;;;;11.24;83.44;102640.91;2107118;28;20052;-68
2022/10/03 05:12:07;;;;;;;0.38;0.38;;;;;;;11.24;83.83;102638.97;2108185;28;20043;-68
2022/10/03 05:13:16;;;;;;;0.40;0.40;;;;;;;11.25;83.92;102646.00;2106818;28;20128;-68
2022/10/03 05:14:25;;;;;;;0.50;0.50;;;;;;;11.25;83.66;102642.50;2107943;28;20724;-67
2022/10/03 05:15:32;;;;;;;0.40;0.40;;;;;;;11.23;83.61;102636.56;2107681;28;20400;-67
2022/10/03 05:16:41;;;;;;;0.30;0.30;;;;;;;11.23;84.18;102642.00;2108332;28;20581;-67
2022/10/03 05:17:48;;;;;;;0.40;0.40;;;;;;;11.21;84.34;102641.50;2110891;28;20542;-69
2022/10/03 05:18:57;;;;;;;0.40;0.40;;;;;;;11.21;84.24;102639.59;2103249;28;20054;-69
2022/10/03 05:20:24;;;;;;;0.43;0.43;;;;;;;11.16;84.05;102642.38;2103296;28;20494;-68
2022/10/03 05:21:34;;;;;;;0.40;0.40;;;;;;;11.18;84.06;102644.81;2110402;28;21482;-69
2022/10/03 05:22:45;;;;;;;0.40;0.40;;;;;;;11.18;83.57;102642.13;2109900;28;20062;-69
2022/10/03 05:24:02;;;;;;;0.50;0.50;;;;;;;11.19;83.81;102646.41;2109741;28;20105;-67
2022/10/03 05:25:19;;;;;;;0.40;0.40;;;;;;;11.19;84.00;102649.13;2110243;28;20052;-69
2022/10/03 05:26:27;;;;;;;0.43;0.43;;;;;;;11.21;84.47;102649.63;2109015;28;20043;-69
2022/10/03 05:27:53;;;;;;;0.40;0.40;;;;;;;11.20;84.09;102650.69;2109566;28;20479;-69
2022/10/03 05:29:04;;;;;;;0.50;0.50;;;;;;;11.19;83.96;102655.31;2111240;28;20054;-68
2022/10/03 05:30:14;;;;;;;0.40;0.40;;;;;;;11.19;84.54;102651.81;2109998;28;20569;-68
2022/10/03 05:31:32;;;;;;;0.45;0.45;;;;;;;11.13;84.32;102653.03;2109979;28;20044;-68
2022/10/03 05:32:40;;;;;;;0.40;0.40;;;;;;;11.11;84.60;102647.09;2109917;28;20040;-68
2022/10/03 05:33:51;;;;;;;0.40;0.40;;;;;;;11.11;84.65;102656.03;2110581;28;20427;-68
2022/10/03 05:35:12;;;;;;;0.40;0.40;;;;;;;11.07;84.95;102648.81;2110575;28;20048;-68
2022/10/03 05:36:28;;;;;;;0.50;0.50;;;;;;;11.03;85.16;102647.81;2110139;27;20056;-69
2022/10/03 05:37:50;;;;;;;0.50;0.50;;;;;;;11.00;85.16;102648.41;2111272;28;20130;-69
2022/10/03 05:39:33;;;;;;;0.50;0.50;;;;;;;10.94;85.39;102655.78;2110996;28;20431;-68
2022/10/03 05:40:40;;;;;;;0.50;0.50;;;;;;;10.94;84.90;102655.78;2109411;28;20048;-69
2022/10/03 05:41:52;;;;;;;0.50;0.50;;;;;;;10.95;85.43;102653.91;2109641;28;20044;-68
2022/10/03 05:43:28;;;;;;;0.50;0.50;;;;;;;10.91;85.76;102661.00;2109446;28;20048;-69
2022/10/03 05:44:39;;;;;;;0.50;0.50;;;;;;;10.91;85.40;102667.19;2109278;28;21903;-69
2022/10/03 05:45:51;;;;;;;0.50;0.50;;;;;;;10.89;85.17;102658.59;2108650;28;20043;-68
2022/10/03 05:46:58;;;;;;;0.50;0.50;;;;;;;10.89;85.79;102657.78;2104407;28;20044;-69
2022/10/03 05:48:13;;;;;;;0.50;0.50;;;;;;;10.87;86.27;102670.78;2110572;28;20078;-68
2022/10/03 05:49:40;;;;;;;0.50;0.50;;;;;;;10.87;86.01;102676.19;2109080;28;20062;-69
2022/10/03 05:51:01;;;;;;;0.50;0.50;;;;;;;10.82;86.04;102662.78;2109622;28;20054;-68
2022/10/03 05:52:38;;;;;;;0.50;0.50;;;;;;;10.81;86.74;102661.19;2110208;27;20044;-68
2022/10/03 05:54:11;;;;;;;0.45;0.45;;;;;;;10.79;85.97;102668.78;2109779;28;20105;-69
2022/10/03 05:55:44;;;;;;;0.47;0.47;;;;;;;10.80;86.28;102673.09;2092426;28;20056;-68
2022/10/03 05:57:15;;;;;;;0.40;0.40;;;;;;;10.79;86.77;102674.19;2109520;28;20087;-69
2022/10/03 05:58:43;;;;;;;0.40;0.40;;;;;;;10.79;86.65;102677.69;2109007;28;20085;-68
2022/10/03 06:00:13;;;;;;;0.40;0.40;;;;;;;10.80;86.59;102675.78;2108088;28;20104;-69
2022/10/03 06:01:51;;;;;;;0.50;0.50;;;;;;;10.78;86.80;102669.88;2104465;28;20159;-67
2022/10/03 06:03:30;;;;;;;0.50;0.50;;;;;;;10.75;86.47;102681.28;2057540;28;20850;-68
2022/10/03 06:05:06;;;;;;;0.50;0.50;;;;;;;10.77;86.67;102681.78;2108574;28;20109;-67
2022/10/03 06:06:19;;;;;;;0.50;0.50;;;;;;;10.78;87.06;102683.38;2074691;28;20053;-67
2022/10/03 06:07:27;;;;;;;0.50;0.50;;;;;;;10.80;86.58;102673.88;2108938;28;20035;-68
2022/10/03 06:08:49;;;;;;;0.50;0.50;;;;;;;10.80;86.33;102675.78;2109513;28;20497;-67
2022/10/03 06:10:29;;;;;;;0.40;0.40;;;;;;;10.79;86.72;102679.56;2108346;27;20070;-67
2022/10/03 06:11:53;;;;;;;0.40;0.40;;;;;;;10.84;86.64;102671.38;2107164;27;20048;-68
2022/10/03 06:13:11;;;;;;;0.40;0.40;;;;;;;10.89;86.26;102676.72;2107779;28;20047;-68
2022/10/03 06:14:28;;;;;;;0.50;0.50;;;;;;;10.95;86.18;102684.44;2108628;28;20104;-68
2022/10/03 06:15:44;;;;;;;0.50;0.50;;;;;;;10.99;86.20;102679.25;2110037;28;20482;-68
2022/10/03 06:17:02;;;;;;;0.50;0.50;;;;;;;11.03;86.31;102677.53;2108802;28;20170;-70
2022/10/03 06:18:27;;;;;;;0.60;0.60;;;;;;;11.08;86.25;102682.84;2101996;28;20055;-69
2022/10/03 06:19:43;;;;;;;0.50;0.50;;;;;;;11.13;86.11;102680.84;2105805;28;20060;-69